Fort Russell, Illinois
Current Conditions -  °F | °C
As of 6:50 PM on Monday 24 Nov 2014 (Local Time) from KALN Reporting Station
Overcast Overcast  
Wind Chill: -1°   Ceiling: 3800
Heat Index:   Visibility: 10mi
Dew Point: -2°   Wind: 13mph
Humidity: 70%   Direction: 270°W
Pressure: 29.92"   Gusts: 21mph
Location:  38.9045°N, 90.0089°W
Report Text: KALN 250050Z 27011G18KT 10SM OVC038 03/M02 A2992
Loading
Personal Weather Stations






























Interactive Weather Map New forecast layout! Learn more

10-Day Weather Forecast

Advertisements
Track Severe Weather on mobile